Time;durP1;ratioP1;P1;durP2;ratioP2;P2;SDS_P1;SDS_P2;PMS_P1;PMS_P2;Temp;Humidity;BMP_temperature;BMP_pressure;BME280_temperature;BME280_humidity;BME280_pressure;Samples;Min_cycle;Max_cycle;Signal;HPM_P1;HPM_P2
2021/12/26 00:01:04;;;;;;;3.03;1.70;;;;;;;;;;5029064;28;20029;-61
2021/12/26 00:03:32;;;;;;;2.90;1.10;;;;;;;;;;5028681;28;20534;-61
2021/12/26 00:06:01;;;;;;;6.30;1.77;;;;;;;;;;5033958;28;20099;-62
2021/12/26 00:08:28;;;;;;;4.47;0.90;;;;;;;;;;5033927;28;20013;-63
2021/12/26 00:10:55;;;;;;;5.50;1.00;;;;;;;;;;5033834;28;20108;-64
2021/12/26 00:13:22;;;;;;;1.57;0.70;;;;;;;;;;5033653;28;20041;-64
2021/12/26 00:15:49;;;;;;;2.93;1.17;;;;;;;;;;5033102;28;20040;-64
2021/12/26 00:18:16;;;;;;;2.23;1.10;;;;;;;;;;5028559;28;20022;-65
2021/12/26 00:20:47;;;;;;;3.57;0.93;;;;;;;;;;5028348;28;20049;-64
2021/12/26 00:23:14;;;;;;;4.73;1.00;;;;;;;;;;5027383;28;20086;-63
2021/12/26 00:25:41;;;;;;;2.77;1.10;;;;;;;;;;5028462;28;20031;-65
2021/12/26 00:28:12;;;;;;;3.30;1.17;;;;;;;;;;5032647;28;20441;-64
2021/12/26 00:30:46;;;;;;;5.77;1.50;;;;;;;;;;5033434;28;20053;-63
2021/12/26 00:33:18;;;;;;;22.83;1.25;;;;;;;;;;5031530;28;20496;-64
2021/12/26 00:35:49;;;;;;;12.97;1.83;;;;;;;;;;5033410;28;20048;-65
2021/12/26 00:38:24;;;;;;;8.60;1.40;;;;;;;;;;5033312;28;20071;-64
2021/12/26 00:40:52;;;;;;;;;;;;;;;;;;5028644;28;20108;-65
2021/12/26 00:43:23;;;;;;;9.73;1.90;;;;;;;;;;5027740;28;20367;-62
2021/12/26 00:46:04;;;;;;;4.67;1.33;;;;;;;;;;5028247;28;20096;-65
2021/12/26 00:48:34;;;;;;;8.10;2.00;;;;;;;;;;5028374;28;20030;-61
2021/12/26 00:51:11;;;;;;;7.87;2.40;;;;;;;;;;5033261;28;20052;-62
2021/12/26 00:53:42;;;;;;;10.67;2.20;;;;;;;;;;5032478;28;20048;-62
2021/12/26 00:56:19;;;;;;;7.83;2.30;;;;;;;;;;5033099;28;20033;-62
2021/12/26 00:58:51;;;;;;;6.80;1.80;;;;;;;;;;5033196;28;20044;-61
2021/12/26 01:01:28;;;;;;;7.70;1.90;;;;;;;;;;5030910;28;20029;-62
2021/12/26 01:04:05;;;;;;;10.53;2.93;;;;;;;;;;5027544;28;20080;-62
2021/12/26 01:06:36;;;;;;;8.03;2.80;;;;;;;;;;5028037;28;20029;-64
2021/12/26 01:09:11;;;;;;;17.37;3.03;;;;;;;;;;5027876;28;20057;-65
2021/12/26 01:11:55;;;;;;;8.27;2.00;;;;;;;;;;5029447;28;20024;-62
2021/12/26 01:14:31;;;;;;;6.93;2.27;;;;;;;;;;5032987;28;20041;-62
2021/12/26 01:17:09;;;;;;;6.03;2.60;;;;;;;;;;5032747;28;20055;-62
2021/12/26 01:19:49;;;;;;;20.77;2.87;;;;;;;;;;5032552;28;20025;-62
2021/12/26 01:22:23;;;;;;;35.73;3.53;;;;;;;;;;5032299;28;20117;-62
2021/12/26 01:25:03;;;;;;;16.02;2.78;;;;;;;;;;5028598;28;20025;-62
2021/12/26 01:27:35;;;;;;;26.27;3.23;;;;;;;;;;5027316;28;20029;-62
2021/12/26 01:30:07;;;;;;;11.33;2.03;;;;;;;;;;5027524;28;20036;-62
2021/12/26 01:32:45;;;;;;;8.87;2.50;;;;;;;;;;5026787;28;20039;-62
2021/12/26 01:35:21;;;;;;;14.03;2.57;;;;;;;;;;5031622;28;20033;-62
2021/12/26 01:38:02;;;;;;;;;;;;;;;;;;;;;
2021/12/26 01:40:35;;;;;;;15.57;2.17;;;;;;;;;;5030877;28;20370;-62
2021/12/26 01:43:08;;;;;;;13.57;2.37;;;;;;;;;;5032180;28;20380;-62
2021/12/26 01:45:39;;;;;;;7.63;2.27;;;;;;;;;;5031668;28;20036;-62
2021/12/26 01:48:10;;;;;;;4.73;2.10;;;;;;;;;;5027313;28;20384;-62
2021/12/26 01:50:41;;;;;;;16.63;2.67;;;;;;;;;;5027165;28;20028;-62
2021/12/26 01:53:12;;;;;;;11.53;2.63;;;;;;;;;;5026585;28;20674;-63
2021/12/26 01:55:46;;;;;;;11.63;2.40;;;;;;;;;;5027390;28;20021;-62
2021/12/26 01:58:26;;;;;;;7.27;2.13;;;;;;;;;;5032173;28;20029;-62
2021/12/26 02:01:01;;;;;;;5.27;1.80;;;;;;;;;;5032046;28;20022;-62
2021/12/26 02:03:31;;;;;;;7.80;2.10;;;;;;;;;;5031832;28;20388;-62
2021/12/26 02:06:04;;;;;;;5.37;2.00;;;;;;;;;;5032182;28;20057;-61
2021/12/26 02:08:35;;;;;;;5.30;1.50;;;;;;;;;;5030203;28;20014;-62
2021/12/26 02:11:07;;;;;;;4.47;1.63;;;;;;;;;;5026504;28;20033;-62
2021/12/26 02:13:38;;;;;;;9.03;1.93;;;;;;;;;;5026163;28;20042;-62
2021/12/26 02:16:10;;;;;;;4.87;1.87;;;;;;;;;;5026821;28;20136;-62
2021/12/26 02:18:42;;;;;;;3.33;1.60;;;;;;;;;;5028847;28;20029;-62
2021/12/26 02:29:47;;;;;;;6.07;2.60;;;;;;;;;;5032151;28;20091;-62
2021/12/26 02:32:17;;;;;;;5.13;2.03;;;;;;;;;;5026703;28;20041;-62
2021/12/26 02:34:48;;;;;;;7.60;2.10;;;;;;;;;;5026816;28;20076;-61
2021/12/26 02:37:26;;;;;;;4.47;1.80;;;;;;;;;;5026241;28;20185;-61
2021/12/26 02:40:04;;;;;;;12.47;1.93;;;;;;;;;;5026621;28;20022;-64
2021/12/26 02:42:38;;;;;;;8.33;2.70;;;;;;;;;;5031213;28;20026;-61
2021/12/26 02:45:09;;;;;;;5.15;1.63;;;;;;;;;;5032386;28;20025;-61
2021/12/26 02:47:45;;;;;;;6.53;1.50;;;;;;;;;;5035727;28;20103;-61
2021/12/26 02:50:20;;;;;;;9.17;2.37;;;;;;;;;;5035494;28;20028;-61
2021/12/26 02:52:50;;;;;;;4.47;1.40;;;;;;;;;;5034016;28;20073;-62
2021/12/26 02:55:23;;;;;;;3.87;1.60;;;;;;;;;;5030353;28;20403;-61
2021/12/26 02:58:04;;;;;;;3.27;1.20;;;;;;;;;;5030163;28;20021;-61
2021/12/26 03:00:39;;;;;;;4.50;1.57;;;;;;;;;;5030356;28;20025;-62
2021/12/26 03:03:13;;;;;;;6.60;1.80;;;;;;;;;;5031446;28;20480;-61
2021/12/26 03:05:44;;;;;;;8.23;2.10;;;;;;;;;;5035358;28;20029;-61
2021/12/26 03:08:17;;;;;;;3.60;1.50;;;;;;;;;;5035291;28;20045;-62
2021/12/26 03:10:47;;;;;;;7.37;1.77;;;;;;;;;;5035271;28;20017;-61
2021/12/26 03:13:16;;;;;;;7.53;1.30;;;;;;;;;;5034544;28;20503;-61
2021/12/26 03:15:47;;;;;;;7.73;1.97;;;;;;;;;;5032598;28;20035;-61
2021/12/26 03:18:18;;;;;;;4.47;1.30;;;;;;;;;;5029733;28;20749;-62
2021/12/26 03:20:52;;;;;;;4.40;1.40;;;;;;;;;;5029890;28;20029;-61
2021/12/26 03:23:24;;;;;;;6.95;1.73;;;;;;;;;;5029019;28;20500;-62
2021/12/26 03:25:59;;;;;;;5.17;1.30;;;;;;;;;;5032130;28;20025;-61
2021/12/26 03:28:31;;;;;;;5.53;1.52;;;;;;;;;;5034587;28;20107;-62
2021/12/26 03:31:02;;;;;;;3.70;1.40;;;;;;;;;;5034896;28;20468;-62
2021/12/26 03:33:39;;;;;;;2.27;1.17;;;;;;;;;;5034161;28;20040;-61
2021/12/26 03:36:09;;;;;;;4.53;1.40;;;;;;;;;;5034616;28;20017;-62
2021/12/26 03:38:39;;;;;;;2.03;1.13;;;;;;;;;;5031040;28;20079;-63
2021/12/26 03:41:17;;;;;;;1.60;1.07;;;;;;;;;;5029611;28;20084;-62
2021/12/26 03:43:56;;;;;;;4.40;1.20;;;;;;;;;;5028631;28;20164;-61
2021/12/26 03:46:27;;;;;;;2.80;1.10;;;;;;;;;;5029458;28;20042;-61
2021/12/26 03:49:04;;;;;;;7.17;1.40;;;;;;;;;;5033122;28;20025;-61
2021/12/26 03:51:35;;;;;;;7.87;2.80;;;;;;;;;;5034123;28;20056;-61
2021/12/26 03:54:08;;;;;;;4.13;1.10;;;;;;;;;;5033979;28;20034;-61
2021/12/26 03:56:41;;;;;;;3.57;0.97;;;;;;;;;;5034193;28;20021;-61
2021/12/26 03:59:13;;;;;;;10.70;1.60;;;;;;;;;;5034186;28;20477;-62
2021/12/26 04:01:44;;;;;;;3.03;1.20;;;;;;;;;;5028720;28;20104;-62
2021/12/26 04:04:21;;;;;;;2.97;1.40;;;;;;;;;;5029043;28;20040;-62
2021/12/26 04:06:56;;;;;;;3.10;1.47;;;;;;;;;;5028851;28;20057;-61
2021/12/26 04:09:25;;;;;;;;;;;;;;;;;;5029260;28;20033;-61
2021/12/26 04:11:55;;;;;;;7.80;1.57;;;;;;;;;;5033494;28;19909;-62
2021/12/26 04:14:26;;;;;;;6.73;1.23;;;;;;;;;;5033137;28;20075;-60
2021/12/26 04:16:57;;;;;;;3.93;1.53;;;;;;;;;;5033502;28;20107;-59
2021/12/26 04:19:34;;;;;;;3.20;1.60;;;;;;;;;;5033811;28;20025;-60
2021/12/26 04:22:10;;;;;;;3.53;1.30;;;;;;;;;;5032400;28;20022;-59
2021/12/26 04:24:38;;;;;;;;;;;;;;;;;;5029030;28;20030;-60
2021/12/26 04:27:09;;;;;;;3.80;1.20;;;;;;;;;;5028172;28;20434;-59
2021/12/26 04:29:51;;;;;;;;;;;;;;;;;;;;;
2021/12/26 04:32:26;;;;;;;2.40;1.13;;;;;;;;;;5029333;28;20041;-59
2021/12/26 04:35:00;;;;;;;4.05;1.30;;;;;;;;;;5033576;28;20384;-59
2021/12/26 04:37:38;;;;;;;4.27;1.40;;;;;;;;;;5033190;28;20109;-59
2021/12/26 04:40:13;;;;;;;3.57;1.33;;;;;;;;;;5033468;28;20067;-59
2021/12/26 04:42:46;;;;;;;2.10;0.93;;;;;;;;;;5032627;28;20480;-59
2021/12/26 04:45:23;;;;;;;4.30;1.30;;;;;;;;;;5030198;28;20017;-59
2021/12/26 04:47:56;;;;;;;6.63;1.77;;;;;;;;;;5028429;28;20087;-60
2021/12/26 04:50:29;;;;;;;4.47;1.57;;;;;;;;;;5028325;28;20029;-59
2021/12/26 04:53:03;;;;;;;3.10;1.40;;;;;;;;;;5027838;28;20086;-59
2021/12/26 04:55:38;;;;;;;4.63;1.63;;;;;;;;;;5031211;28;20476;-59
2021/12/26 04:58:09;;;;;;;1.88;1.10;;;;;;;;;;5033314;28;20250;-59
2021/12/26 05:00:43;;;;;;;2.40;1.20;;;;;;;;;;5033124;28;20022;-59
2021/12/26 05:03:14;;;;;;;5.97;1.30;;;;;;;;;;5031434;28;20033;-59
2021/12/26 05:05:49;;;;;;;2.63;1.30;;;;;;;;;;5032969;28;20025;-59
2021/12/26 05:08:20;;;;;;;3.30;1.33;;;;;;;;;;5028103;28;20290;-59
2021/12/26 05:10:51;;;;;;;5.10;1.33;;;;;;;;;;5028620;28;20026;-59
2021/12/26 05:13:24;;;;;;;3.50;1.37;;;;;;;;;;5027529;28;20805;-60
2021/12/26 05:16:02;;;;;;;4.70;0.90;;;;;;;;;;5027588;28;20275;-59
2021/12/26 05:18:36;;;;;;;4.93;1.80;;;;;;;;;;5031235;28;20259;-60
2021/12/26 05:21:14;;;;;;;1.77;0.80;;;;;;;;;;5032555;28;20282;-59
2021/12/26 05:23:47;;;;;;;1.93;0.90;;;;;;;;;;5032631;28;20334;-59
2021/12/26 05:26:25;;;;;;;4.20;1.13;;;;;;;;;;5032674;28;20266;-59
2021/12/26 05:28:58;;;;;;;1.73;0.90;;;;;;;;;;5032212;28;20251;-59
2021/12/26 05:31:36;;;;;;;1.83;0.93;;;;;;;;;;5027233;28;20266;-59
2021/12/26 05:34:10;;;;;;;3.60;1.10;;;;;;;;;;5007638;28;20790;-59
2021/12/26 05:36:44;;;;;;;3.93;1.40;;;;;;;;;;5007475;28;20272;-59
2021/12/26 05:39:17;;;;;;;3.27;1.10;;;;;;;;;;5008810;28;20266;-59
2021/12/26 05:41:55;;;;;;;4.03;1.20;;;;;;;;;;5014961;28;20279;-59
2021/12/26 05:44:26;;;;;;;3.10;1.10;;;;;;;;;;5025234;28;20281;-59
2021/12/26 05:46:55;;;;;;;3.90;1.43;;;;;;;;;;5032187;28;20342;-59
2021/12/26 05:49:27;;;;;;;3.70;1.43;;;;;;;;;;5032393;28;20313;-59
2021/12/26 05:51:59;;;;;;;6.10;1.33;;;;;;;;;;5029895;28;20278;-59
2021/12/26 05:54:29;;;;;;;3.57;1.63;;;;;;;;;;5027015;28;20370;-59
2021/12/26 05:57:00;;;;;;;7.83;1.80;;;;;;;;;;5027117;28;20733;-59
2021/12/26 05:59:31;;;;;;;4.10;1.90;;;;;;;;;;5027095;28;20259;-59
2021/12/26 06:02:02;;;;;;;3.73;1.83;;;;;;;;;;5028775;28;20289;-59
2021/12/26 06:04:44;;;;;;;3.10;1.70;;;;;;;;;;5032298;28;20259;-60
2021/12/26 06:07:16;;;;;;;3.00;1.20;;;;;;;;;;5032163;28;20282;-59
2021/12/26 06:09:48;;;;;;;3.20;2.33;;;;;;;;;;5031964;28;20333;-59
2021/12/26 06:12:20;;;;;;;3.00;1.30;;;;;;;;;;5031861;28;20289;-59
2021/12/26 06:14:55;;;;;;;4.00;1.77;;;;;;;;;;5028907;28;20346;-59
2021/12/26 06:17:26;;;;;;;4.13;0.90;;;;;;;;;;5026622;28;20274;-59
2021/12/26 06:19:57;;;;;;;3.43;1.40;;;;;;;;;;5027664;28;20507;-59
2021/12/26 06:22:35;;;;;;;2.80;1.67;;;;;;;;;;5030871;28;20731;-58
2021/12/26 06:25:09;;;;;;;2.57;1.30;;;;;;;;;;5034339;28;20820;-59
2021/12/26 06:27:51;;;;;;;2.00;0.90;;;;;;;;;;5035862;28;20273;-59
2021/12/26 06:30:22;;;;;;;2.63;1.23;;;;;;;;;;5035524;28;20290;-58
2021/12/26 06:32:53;;;;;;;2.63;1.00;;;;;;;;;;5035481;28;20799;-59
2021/12/26 06:35:23;;;;;;;3.83;1.20;;;;;;;;;;5035636;28;20269;-58
2021/12/26 06:37:53;;;;;;;2.07;1.13;;;;;;;;;;5030790;28;20278;-58
2021/12/26 06:40:25;;;;;;;3.13;1.07;;;;;;;;;;5030743;28;20803;-59
2021/12/26 06:43:02;;;;;;;10.77;2.23;;;;;;;;;;5029977;28;20270;-58
2021/12/26 06:45:33;;;;;;;1.83;1.10;;;;;;;;;;5030665;28;20342;-59
2021/12/26 06:48:11;;;;;;;2.77;1.30;;;;;;;;;;5035394;28;20261;-59
2021/12/26 06:50:51;;;;;;;4.97;1.77;;;;;;;;;;5035281;28;20342;-59
2021/12/26 06:53:28;;;;;;;4.13;1.33;;;;;;;;;;5035196;28;20388;-58
2021/12/26 06:55:59;;;;;;;3.23;1.70;;;;;;;;;;5035379;28;20877;-58
2021/12/26 06:58:30;;;;;;;7.67;2.77;;;;;;;;;;5034204;28;20664;-59
2021/12/26 07:01:10;;;;;;;5.50;2.33;;;;;;;;;;5030173;28;20269;-58
2021/12/26 07:03:44;;;;;;;7.03;2.20;;;;;;;;;;5030071;28;20336;-59
2021/12/26 07:06:18;;;;;;;15.63;3.30;;;;;;;;;;5030285;28;20297;-59
2021/12/26 07:08:49;;;;;;;3.03;1.58;;;;;;;;;;5031703;28;20338;-58
2021/12/26 07:11:20;;;;;;;3.07;1.50;;;;;;;;;;5034981;28;20051;-59
2021/12/26 07:13:52;;;;;;;4.47;1.30;;;;;;;;;;5034699;28;20290;-58
2021/12/26 07:16:26;;;;;;;6.07;1.80;;;;;;;;;;5035216;28;20271;-58
2021/12/26 07:19:06;;;;;;;6.63;2.00;;;;;;;;;;5034906;28;20259;-59
2021/12/26 07:21:37;;;;;;;5.50;1.57;;;;;;;;;;5031134;28;20298;-58
2021/12/26 07:24:09;;;;;;;3.67;2.20;;;;;;;;;;5029865;28;20269;-58
2021/12/26 07:26:40;;;;;;;7.20;2.30;;;;;;;;;;5029743;28;20274;-58
2021/12/26 07:29:11;;;;;;;6.77;1.90;;;;;;;;;;5029910;28;20255;-58
2021/12/26 07:31:55;;;;;;;3.80;2.00;;;;;;;;;;5031564;28;20269;-59
2021/12/26 07:34:29;;;;;;;9.13;1.90;;;;;;;;;;5034590;28;20368;-58
2021/12/26 07:37:07;;;;;;;3.80;1.57;;;;;;;;;;5034625;28;20271;-58
2021/12/26 07:39:39;;;;;;;5.27;1.37;;;;;;;;;;5034543;28;20788;-58
2021/12/26 07:42:13;;;;;;;3.60;1.63;;;;;;;;;;5034073;28;20271;-58
2021/12/26 07:44:45;;;;;;;2.95;1.52;;;;;;;;;;5029834;28;20674;-58
2021/12/26 07:47:23;;;;;;;5.60;1.37;;;;;;;;;;5029496;28;20087;-58
2021/12/26 07:49:54;;;;;;;2.70;1.03;;;;;;;;;;5029236;28;20266;-58
2021/12/26 07:52:37;;;;;;;2.40;1.00;;;;;;;;;;5028413;28;20309;-59
2021/12/26 07:55:13;;;;;;;2.53;1.10;;;;;;;;;;5034520;28;20297;-58
2021/12/26 07:57:48;;;;;;;2.93;1.40;;;;;;;;;;5034434;28;20656;-59
2021/12/26 08:00:21;;;;;;;3.28;1.10;;;;;;;;;;5034248;28;20289;-58
2021/12/26 08:02:55;;;;;;;5.00;1.70;;;;;;;;;;5034143;28;20030;-58
2021/12/26 08:05:35;;;;;;;3.80;1.43;;;;;;;;;;5032782;28;20735;-58
2021/12/26 08:08:06;;;;;;;2.23;1.07;;;;;;;;;;5029065;28;20748;-58
2021/12/26 08:10:39;;;;;;;1.97;0.93;;;;;;;;;;5029383;28;20265;-58
2021/12/26 08:13:10;;;;;;;2.17;0.70;;;;;;;;;;5028722;28;20291;-59
2021/12/26 08:15:41;;;;;;;2.50;1.10;;;;;;;;;;5030675;28;20267;-58
2021/12/26 08:18:15;;;;;;;2.53;0.90;;;;;;;;;;5034231;28;20357;-58
2021/12/26 08:20:50;;;;;;;2.37;1.00;;;;;;;;;;5033953;28;20266;-58
2021/12/26 08:23:20;;;;;;;2.70;1.07;;;;;;;;;;5033575;28;20267;-58
2021/12/26 08:25:51;;;;;;;2.70;1.20;;;;;;;;;;5033726;28;20263;-58
2021/12/26 08:28:31;;;;;;;2.20;1.10;;;;;;;;;;5030672;28;20259;-58
2021/12/26 08:31:03;;;;;;;2.77;1.20;;;;;;;;;;5028850;28;20729;-58
2021/12/26 08:33:35;;;;;;;4.53;1.60;;;;;;;;;;5028198;28;20680;-58
2021/12/26 08:36:06;;;;;;;2.40;1.10;;;;;;;;;;5028434;28;20262;-58
2021/12/26 08:38:37;;;;;;;5.40;1.80;;;;;;;;;;5031369;28;20266;-58
2021/12/26 08:41:11;;;;;;;2.23;1.00;;;;;;;;;;5033549;28;20354;-58
2021/12/26 08:43:47;;;;;;;1.87;0.70;;;;;;;;;;5030876;28;20271;-58
2021/12/26 08:46:18;;;;;;;2.87;1.20;;;;;;;;;;5033482;28;20262;-58
2021/12/26 08:48:49;;;;;;;2.07;0.90;;;;;;;;;;5033403;28;20279;-58
2021/12/26 08:51:20;;;;;;;4.17;2.00;;;;;;;;;;5029220;28;20341;-58
2021/12/26 08:53:51;;;;;;;3.20;1.20;;;;;;;;;;5027347;28;20286;-58
2021/12/26 08:56:22;;;;;;;3.47;1.37;;;;;;;;;;5028107;28;20270;-58
2021/12/26 08:58:56;;;;;;;2.03;1.20;;;;;;;;;;5028081;28;20261;-58
2021/12/26 09:01:27;;;;;;;8.23;1.70;;;;;;;;;;5032109;28;20262;-60
2021/12/26 09:03:58;;;;;;;5.80;1.03;;;;;;;;;;5013442;28;20252;-58
2021/12/26 09:06:29;;;;;;;3.47;1.67;;;;;;;;;;5013314;28;20263;-59
2021/12/26 09:09:10;;;;;;;3.50;1.70;;;;;;;;;;5013212;28;20293;-58
2021/12/26 09:11:40;;;;;;;1.83;0.93;;;;;;;;;;5014599;28;20259;-58
2021/12/26 09:14:22;;;;;;;4.47;1.77;;;;;;;;;;5027610;28;20625;-58
2021/12/26 09:16:59;;;;;;;5.27;1.57;;;;;;;;;;5027492;28;20313;-58
2021/12/26 09:19:29;;;;;;;2.17;1.03;;;;;;;;;;5027845;28;20266;-58
2021/12/26 09:22:01;;;;;;;19.53;1.53;;;;;;;;;;5027696;28;20302;-58
2021/12/26 09:24:34;;;;;;;1.80;0.90;;;;;;;;;;5032409;28;20250;-59
2021/12/26 09:27:04;;;;;;;2.23;1.30;;;;;;;;;;5032882;28;20262;-58
2021/12/26 09:29:36;;;;;;;2.47;1.40;;;;;;;;;;5032634;28;20265;-58
2021/12/26 09:32:17;;;;;;;2.50;0.97;;;;;;;;;;5032393;28;20310;-58
2021/12/26 09:34:51;;;;;;;1.97;1.00;;;;;;;;;;5029786;28;20314;-58
2021/12/26 09:37:22;;;;;;;1.17;0.70;;;;;;;;;;5027446;28;20278;-58
2021/12/26 09:39:53;;;;;;;2.00;0.73;;;;;;;;;;5027302;28;20261;-58
2021/12/26 09:42:25;;;;;;;2.30;1.70;;;;;;;;;;5027042;28;20275;-58
2021/12/26 09:45:00;;;;;;;1.50;0.87;;;;;;;;;;5029346;28;20286;-58
2021/12/26 09:47:32;;;;;;;3.08;1.10;;;;;;;;;;5032512;28;20337;-58
2021/12/26 09:50:02;;;;;;;1.50;0.90;;;;;;;;;;5032470;28;20038;-58
2021/12/26 09:52:45;;;;;;;2.77;1.27;;;;;;;;;;5031764;28;20746;-58
2021/12/26 09:55:17;;;;;;;2.30;1.00;;;;;;;;;;5030660;28;20288;-58
2021/12/26 09:57:49;;;;;;;2.07;1.13;;;;;;;;;;5028502;28;20259;-58
2021/12/26 10:00:46;;;;;;;;;;;;;;;;;;;;;
2021/12/26 10:03:28;;;;;;;1.50;0.90;;;;;;;;;;5026434;28;20273;-58
2021/12/26 10:06:01;;;;;;;1.73;0.83;;;;;;;;;;5027051;28;20263;-58
2021/12/26 10:08:41;;;;;;;3.10;1.20;;;;;;;;;;5031913;28;20270;-58
2021/12/26 10:11:30;;;;;;;2.40;1.00;;;;;;;;;;5031630;28;20285;-58
2021/12/26 10:14:15;;;;;;;2.73;1.00;;;;;;;;;;5012448;28;20287;-58
2021/12/26 10:16:50;;;;;;;2.63;0.70;;;;;;;;;;5012496;28;20754;-58
2021/12/26 10:19:22;;;;;;;2.43;1.30;;;;;;;;;;5010272;28;20259;-60
2021/12/26 10:21:54;;;;;;;2.33;0.80;;;;;;;;;;5010426;28;20267;-58
2021/12/26 10:24:29;;;;;;;2.00;1.07;;;;;;;;;;5026791;28;20286;-58
2021/12/26 10:27:08;;;;;;;2.07;1.03;;;;;;;;;;5026189;28;20283;-58
2021/12/26 10:29:55;;;;;;;2.13;0.90;;;;;;;;;;5029304;28;20277;-58
2021/12/26 10:32:32;;;;;;;2.20;0.83;;;;;;;;;;5031668;28;20279;-58
2021/12/26 10:35:03;;;;;;;3.93;1.03;;;;;;;;;;5031611;28;20358;-58
2021/12/26 10:38:11;;;;;;;2.53;0.97;;;;;;;;;;5031945;28;20270;-58
2021/12/26 10:40:43;;;;;;;2.30;1.10;;;;;;;;;;5020627;28;20271;-58
2021/12/26 10:43:47;;;;;;;6.13;1.70;;;;;;;;;;5026051;28;20741;-59
2021/12/26 10:46:24;;;;;;;2.63;1.13;;;;;;;;;;5026733;28;20298;-58
2021/12/26 10:48:55;;;;;;;3.80;1.27;;;;;;;;;;5026616;28;20265;-58
2021/12/26 10:51:44;;;;;;;3.07;1.27;;;;;;;;;;5028188;28;20281;-58
2021/12/26 10:54:25;;;;;;;1.67;1.00;;;;;;;;;;5011833;28;20778;-58
2021/12/26 10:57:13;;;;;;;2.20;1.03;;;;;;;;;;5012025;28;20259;-58
2021/12/26 10:59:48;;;;;;;2.27;0.80;;;;;;;;;;5011849;28;20273;-58
2021/12/26 11:02:29;;;;;;;1.17;0.60;;;;;;;;;;5018052;28;20267;-58
2021/12/26 11:05:05;;;;;;;1.60;0.90;;;;;;;;;;5027024;28;20033;-58
2021/12/26 11:07:46;;;;;;;4.93;1.10;;;;;;;;;;5029301;28;20267;-58
2021/12/26 11:10:19;;;;;;;1.67;0.80;;;;;;;;;;5030037;28;20270;-58
2021/12/26 11:13:02;;;;;;;3.13;0.77;;;;;;;;;;5029560;28;20370;-58
2021/12/26 11:15:35;;;;;;;3.33;0.90;;;;;;;;;;5035125;28;20255;-58
2021/12/26 11:18:18;;;;;;;3.60;0.80;;;;;;;;;;5034874;28;20393;-58
2021/12/26 11:20:51;;;;;;;1.80;1.00;;;;;;;;;;5034948;28;20255;-59
2021/12/26 11:23:33;;;;;;;1.80;1.03;;;;;;;;;;5034631;28;20270;-58
2021/12/26 11:26:09;;;;;;;1.87;0.90;;;;;;;;;;5032854;28;20294;-59
2021/12/26 11:28:42;;;;;;;2.37;1.17;;;;;;;;;;5029839;28;20262;-58
2021/12/26 11:31:20;;;;;;;1.77;1.00;;;;;;;;;;5029750;28;20266;-58
2021/12/26 11:33:56;;;;;;;2.70;1.40;;;;;;;;;;5029325;28;20298;-58
2021/12/26 11:36:29;;;;;;;;;;;;;;;;;;5032521;28;20271;-58
2021/12/26 11:39:00;;;;;;;1.73;0.90;;;;;;;;;;5034654;28;19916;-58
2021/12/26 11:41:44;;;;;;;1.77;1.00;;;;;;;;;;5035226;28;20740;-58
2021/12/26 11:44:35;;;;;;;1.70;0.73;;;;;;;;;;5015044;28;20279;-58
2021/12/26 11:47:25;;;;;;;1.87;1.10;;;;;;;;;;5014762;28;20855;-57
2021/12/26 11:50:09;;;;;;;0.97;0.80;;;;;;;;;;5009582;28;20267;-59
2021/12/26 11:52:49;;;;;;;1.53;0.87;;;;;;;;;;5019167;28;20267;-58
2021/12/26 11:55:31;;;;;;;3.57;1.23;;;;;;;;;;5029313;28;20258;-58
2021/12/26 11:58:11;;;;;;;2.87;1.10;;;;;;;;;;5030488;28;20258;-59
2021/12/26 12:00:43;;;;;;;3.20;0.90;;;;;;;;;;5034333;28;21092;-59
2021/12/26 12:03:27;;;;;;;2.20;1.00;;;;;;;;;;5034065;28;20350;-57
2021/12/26 12:06:07;;;;;;;1.93;1.20;;;;;;;;;;5034363;28;20258;-58
2021/12/26 12:08:41;;;;;;;2.87;0.83;;;;;;;;;;5033949;28;20899;-58
2021/12/26 12:11:12;;;;;;;2.70;1.10;;;;;;;;;;5030776;28;20352;-57
2021/12/26 12:13:56;;;;;;;2.53;1.00;;;;;;;;;;5028646;28;20335;-57
2021/12/26 12:16:27;;;;;;;3.30;1.53;;;;;;;;;;5028931;28;21208;-57
2021/12/26 12:18:59;;;;;;;1.60;1.00;;;;;;;;;;5028951;28;20784;-58
2021/12/26 12:21:45;;;;;;;2.67;1.30;;;;;;;;;;5032476;28;20333;-58
2021/12/26 12:24:20;;;;;;;2.07;1.10;;;;;;;;;;5013654;28;20275;-58
2021/12/26 12:27:10;;;;;;;2.13;1.13;;;;;;;;;;5014073;28;20266;-58
2021/12/26 12:29:44;;;;;;;2.03;1.10;;;;;;;;;;5013911;28;20018;-57
2021/12/26 12:32:19;;;;;;;4.13;1.27;;;;;;;;;;5018859;28;20270;-58
2021/12/26 12:34:48;;;;;;;;;;;;;;;;;;5028969;28;20328;-58
2021/12/26 12:37:32;;;;;;;2.87;1.03;;;;;;;;;;5028389;28;19905;-57
2021/12/26 12:40:18;;;;;;;2.33;0.83;;;;;;;;;;5028631;28;20762;-57
2021/12/26 12:43:07;;;;;;;3.47;1.23;;;;;;;;;;5029788;28;20255;-58
2021/12/26 12:45:57;;;;;;;2.03;1.07;;;;;;;;;;5033487;28;20305;-57
2021/12/26 12:48:39;;;;;;;4.03;1.33;;;;;;;;;;5033414;28;20283;-57
2021/12/26 12:51:18;;;;;;;3.63;1.43;;;;;;;;;;5033457;28;20261;-57
2021/12/26 12:53:58;;;;;;;2.10;1.20;;;;;;;;;;5032552;28;20344;-57
2021/12/26 12:56:44;;;;;;;3.03;1.30;;;;;;;;;;5028169;28;20287;-58
2021/12/26 12:59:12;;;;;;;;;;;;;;;;;;5028395;28;20285;-58
2021/12/26 13:01:46;;;;;;;1.17;0.87;;;;;;;;;;5027598;28;19905;-58
2021/12/26 13:04:21;;;;;;;4.33;1.23;;;;;;;;;;5028091;28;20266;-58
2021/12/26 13:06:58;;;;;;;3.30;1.30;;;;;;;;;;5033070;28;20253;-57
2021/12/26 13:09:31;;;;;;;1.90;1.10;;;;;;;;;;5032982;28;20527;-58
2021/12/26 13:12:04;;;;;;;4.40;1.90;;;;;;;;;;5032469;28;20315;-58
2021/12/26 13:14:45;;;;;;;4.90;1.10;;;;;;;;;;5033038;28;20286;-57
2021/12/26 13:17:47;;;;;;;5.00;1.23;;;;;;;;;;5030268;28;20290;-57
2021/12/26 13:20:25;;;;;;;3.93;1.30;;;;;;;;;;5027762;28;20625;-57
2021/12/26 13:23:04;;;;;;;3.63;1.30;;;;;;;;;;5026769;28;20281;-58
2021/12/26 13:25:35;;;;;;;4.07;2.07;;;;;;;;;;5027091;28;20283;-57
2021/12/26 13:28:26;;;;;;;3.43;1.50;;;;;;;;;;5031123;28;20278;-58
2021/12/26 13:31:05;;;;;;;9.33;1.93;;;;;;;;;;5032639;28;20255;-58
2021/12/26 13:33:36;;;;;;;5.13;2.10;;;;;;;;;;5032178;28;20638;-57
2021/12/26 13:36:11;;;;;;;5.63;2.30;;;;;;;;;;5032428;28;20274;-58
2021/12/26 13:38:39;;;;;;;;;;;;;;;;;;5032427;28;20668;-58
2021/12/26 13:41:13;;;;;;;3.93;2.20;;;;;;;;;;5027378;28;19912;-57
2021/12/26 13:43:45;;;;;;;15.47;2.63;;;;;;;;;;5026509;28;20271;-57
2021/12/26 13:46:19;;;;;;;4.50;2.23;;;;;;;;;;5027361;28;20270;-57
2021/12/26 13:49:07;;;;;;;5.10;2.97;;;;;;;;;;5027754;28;20294;-58
2021/12/26 13:51:55;;;;;;;6.37;3.23;;;;;;;;;;5031350;28;20320;-59
2021/12/26 13:54:37;;;;;;;10.40;3.00;;;;;;;;;;5032150;28;20287;-58
2021/12/26 13:57:09;;;;;;;7.13;2.87;;;;;;;;;;5032434;28;20267;-59
2021/12/26 13:59:42;;;;;;;12.33;3.10;;;;;;;;;;5031830;28;20266;-58
2021/12/26 14:02:14;;;;;;;10.53;3.73;;;;;;;;;;5028700;28;20621;-59
2021/12/26 14:04:52;;;;;;;11.93;2.20;;;;;;;;;;5027485;28;20255;-58
2021/12/26 14:07:33;;;;;;;7.90;3.57;;;;;;;;;;5026508;28;20273;-59
2021/12/26 14:10:07;;;;;;;8.83;2.33;;;;;;;;;;5026636;28;20278;-58
2021/12/26 14:12:46;;;;;;;5.57;2.33;;;;;;;;;;5030904;28;20756;-58
2021/12/26 14:15:44;;;;;;;3.03;1.63;;;;;;;;;;5032344;28;20316;-58
2021/12/26 14:18:26;;;;;;;6.40;1.90;;;;;;;;;;5031917;28;20271;-58
2021/12/26 14:21:11;;;;;;;7.63;1.80;;;;;;;;;;5032078;28;20686;-58
2021/12/26 14:23:44;;;;;;;4.32;2.03;;;;;;;;;;5030179;28;20273;-59
2021/12/26 14:26:16;;;;;;;4.33;1.80;;;;;;;;;;5026885;28;20021;-58
2021/12/26 14:28:53;;;;;;;3.93;1.73;;;;;;;;;;5026396;28;20274;-61
2021/12/26 14:31:31;;;;;;;3.73;2.00;;;;;;;;;;5026574;28;20265;-61
2021/12/26 14:34:02;;;;;;;3.77;1.93;;;;;;;;;;5028832;28;20294;-59
2021/12/26 14:36:44;;;;;;;7.27;1.87;;;;;;;;;;5031991;28;20329;-61
2021/12/26 14:39:20;;;;;;;3.70;2.03;;;;;;;;;;5031765;28;20761;-61
2021/12/26 14:41:52;;;;;;;4.97;2.03;;;;;;;;;;5033756;28;20290;-60
2021/12/26 14:44:26;;;;;;;9.57;3.20;;;;;;;;;;5035485;28;20294;-60
2021/12/26 14:47:09;;;;;;;7.43;2.40;;;;;;;;;;5031846;28;20270;-60
2021/12/26 14:49:43;;;;;;;6.93;2.10;;;;;;;;;;5030212;28;21553;-61
2021/12/26 14:52:14;;;;;;;5.83;2.10;;;;;;;;;;5029226;28;20435;-61
2021/12/26 14:55:01;;;;;;;3.93;2.07;;;;;;;;;;5030224;28;20038;-59
2021/12/26 14:57:36;;;;;;;5.87;2.17;;;;;;;;;;5034809;28;20342;-59
2021/12/26 15:00:07;;;;;;;3.97;1.60;;;;;;;;;;5034940;28;20488;-59
2021/12/26 15:02:40;;;;;;;5.37;1.97;;;;;;;;;;5035187;28;20029;-59
2021/12/26 15:05:27;;;;;;;2.87;1.80;;;;;;;;;;5035280;28;20083;-59
2021/12/26 15:08:00;;;;;;;3.97;2.13;;;;;;;;;;5033859;28;20029;-59
2021/12/26 15:10:41;;;;;;;6.13;2.13;;;;;;;;;;5029883;28;20498;-60
2021/12/26 15:13:19;;;;;;;5.63;2.00;;;;;;;;;;5029879;28;20069;-59
2021/12/26 15:15:52;;;;;;;3.03;1.77;;;;;;;;;;5029797;28;20064;-59
2021/12/26 15:18:29;;;;;;;3.20;2.00;;;;;;;;;;5032023;28;20033;-59
2021/12/26 15:21:05;;;;;;;4.10;1.80;;;;;;;;;;5035121;28;20017;-59
2021/12/26 15:23:44;;;;;;;5.77;2.20;;;;;;;;;;5034764;28;20021;-60
2021/12/26 15:26:19;;;;;;;5.37;2.10;;;;;;;;;;5035086;28;20029;-59
2021/12/26 15:28:52;;;;;;;7.50;2.67;;;;;;;;;;5034629;28;20056;-59
2021/12/26 15:31:49;;;;;;;8.10;2.23;;;;;;;;;;5031029;28;20029;-59
2021/12/26 15:34:21;;;;;;;4.73;2.73;;;;;;;;;;5029582;28;20030;-59
2021/12/26 15:36:55;;;;;;;4.40;2.57;;;;;;;;;;5029585;28;20108;-59
2021/12/26 15:39:26;;;;;;;6.00;2.40;;;;;;;;;;5029296;28;20056;-59
2021/12/26 15:41:59;;;;;;;11.10;4.53;;;;;;;;;;5034192;28;20048;-59
2021/12/26 15:44:30;;;;;;;17.67;4.50;;;;;;;;;;5034920;28;20384;-59